createdAt,value
2019-06-26T00:02:41.326Z,13.80
2019-06-26T00:07:46.450Z,13.90
2019-06-26T00:12:51.464Z,14.30
2019-06-26T00:17:56.325Z,13.87
2019-06-26T00:23:01.346Z,13.27
2019-06-26T00:28:06.202Z,13.10
2019-06-26T00:33:11.041Z,13.03
2019-06-26T00:38:15.907Z,12.30
2019-06-26T00:43:20.766Z,12.30
2019-06-26T00:48:25.585Z,11.97
2019-06-26T00:53:30.426Z,12.90
2019-06-26T00:58:35.292Z,12.80
2019-06-26T01:03:40.318Z,12.80
2019-06-26T01:08:45.351Z,12.50
2019-06-26T01:13:58.171Z,12.60
2019-06-26T01:18:58.290Z,12.70
2019-06-26T01:24:03.935Z,13.00
2019-06-26T01:29:09.139Z,13.07
2019-06-26T01:34:14.009Z,13.20
2019-06-26T01:39:19.255Z,13.67
2019-06-26T01:44:24.060Z,12.07
2019-06-26T01:49:29.305Z,12.77
2019-06-26T01:54:34.455Z,12.63
2019-06-26T01:59:39.276Z,13.27
2019-06-26T02:04:43.990Z,12.77
2019-06-26T02:09:49.112Z,12.10
2019-06-26T02:14:55.440Z,13.37
2019-06-26T02:20:00.349Z,12.27
2019-06-26T02:25:06.095Z,13.37
2019-06-26T02:30:10.985Z,13.20
2019-06-26T02:35:15.821Z,12.60
2019-06-26T02:40:21.679Z,14.27
2019-06-26T02:45:26.521Z,14.60
2019-06-26T02:50:31.359Z,13.40
2019-06-26T02:55:36.243Z,13.43
2019-06-26T03:00:41.124Z,14.27
2019-06-26T03:05:45.983Z,15.23
2019-06-26T03:10:50.949Z,15.10
2019-06-26T03:15:55.895Z,14.63
2019-06-26T03:21:00.693Z,14.43
2019-06-26T03:26:05.523Z,14.50
2019-06-26T03:31:10.402Z,17.00
2019-06-26T03:36:15.307Z,16.10
2019-06-26T03:41:20.194Z,16.67
2019-06-26T03:46:25.022Z,16.17
2019-06-26T03:51:29.900Z,17.17
2019-06-26T03:56:34.751Z,18.50
2019-06-26T04:01:39.734Z,18.67
2019-06-26T04:06:44.656Z,19.57
2019-06-26T04:11:49.601Z,24.37
2019-06-26T04:16:54.910Z,21.67
2019-06-26T04:21:59.886Z,19.47
2019-06-26T04:27:04.946Z,20.00
2019-06-26T04:32:09.908Z,18.40
2019-06-26T04:37:14.948Z,17.03
2019-06-26T04:42:19.895Z,17.07
2019-06-26T04:47:25.155Z,14.83
2019-06-26T04:52:30.200Z,15.43
2019-06-26T04:57:35.495Z,14.17
2019-06-26T05:02:40.428Z,14.50
2019-06-26T05:07:45.645Z,14.67
2019-06-26T05:12:50.680Z,14.33
2019-06-26T05:17:55.785Z,14.07
2019-06-26T05:23:00.702Z,14.03
2019-06-26T05:28:08.272Z,14.03
2019-06-26T05:33:12.340Z,13.20
2019-06-26T05:38:17.380Z,13.10
2019-06-26T05:43:22.327Z,13.03
2019-06-26T05:48:27.200Z,12.73
2019-06-26T05:53:32.346Z,13.23
2019-06-26T05:58:37.289Z,13.40
2019-06-26T06:03:42.242Z,12.97
2019-06-26T06:08:47.249Z,12.73
2019-06-26T06:13:52.325Z,12.97
2019-06-26T06:19:03.499Z,12.47
2019-06-26T06:24:10.735Z,12.97
2019-06-26T06:29:21.315Z,13.43
2019-06-26T06:34:26.397Z,13.90
2019-06-26T06:39:31.543Z,14.17
2019-06-26T06:44:36.591Z,14.40
2019-06-26T06:49:41.605Z,13.67
2019-06-26T06:54:46.732Z,17.93
2019-06-26T06:59:51.822Z,20.47
2019-06-26T07:04:57.118Z,17.87
2019-06-26T07:10:02.172Z,15.07
2019-06-26T07:15:08.850Z,21.40
2019-06-26T07:20:14.813Z,16.27
2019-06-26T07:25:19.867Z,15.77
2019-06-26T07:30:24.926Z,21.30
2019-06-26T07:35:29.941Z,19.20
2019-06-26T07:40:34.811Z,14.30
2019-06-26T07:45:40.008Z,12.80
2019-06-26T07:50:45.188Z,14.63
2019-06-26T07:55:50.200Z,16.57
2019-06-26T08:00:55.179Z,17.10
2019-06-26T08:06:01.842Z,16.70
2019-06-26T08:11:07.012Z,16.13
2019-06-26T08:16:12.057Z,11.70
2019-06-26T08:21:17.611Z,21.37
2019-06-26T08:26:22.752Z,13.03
2019-06-26T08:31:27.917Z,14.40
2019-06-26T08:36:32.983Z,17.80
2019-06-26T08:41:38.080Z,19.60
2019-06-26T08:46:43.096Z,12.37
2019-06-26T08:51:48.161Z,9.50
2019-06-26T08:56:53.072Z,17.43
2019-06-26T09:01:58.288Z,18.83
2019-06-26T09:07:03.174Z,12.77
2019-06-26T09:12:08.284Z,18.47
2019-06-26T09:17:13.575Z,12.03
2019-06-26T09:22:20.246Z,18.30
2019-06-26T09:27:25.408Z,15.37
2019-06-26T09:32:30.506Z,20.13
2019-06-26T09:37:35.638Z,21.10
2019-06-26T09:42:40.562Z,18.70
2019-06-26T09:47:45.823Z,11.73
2019-06-26T09:52:51.000Z,8.37
2019-06-26T09:57:56.146Z,14.00
2019-06-26T10:03:01.053Z,7.87
2019-06-26T10:08:05.966Z,12.73
2019-06-26T10:13:10.919Z,8.20
2019-06-26T10:18:16.103Z,7.00
2019-06-26T10:23:21.374Z,7.10
2019-06-26T10:28:26.398Z,10.17
2019-06-26T10:33:31.428Z,10.83
2019-06-26T10:38:36.499Z,9.73
2019-06-26T10:43:41.437Z,10.00
2019-06-26T10:48:46.647Z,12.40
2019-06-26T10:53:51.896Z,14.77
2019-06-26T10:58:56.831Z,14.67
2019-06-26T11:04:02.049Z,18.13
2019-06-26T11:09:08.698Z,15.63
2019-06-26T11:14:13.989Z,11.47
2019-06-26T11:19:18.915Z,12.47
2019-06-26T11:24:25.437Z,12.13
2019-06-26T11:29:30.672Z,10.17
2019-06-26T11:34:35.946Z,9.90
2019-06-26T11:39:40.909Z,10.30
2019-06-26T11:44:46.006Z,7.60
2019-06-26T11:49:59.867Z,7.83
2019-06-26T11:55:03.006Z,7.10
2019-06-26T12:00:08.770Z,6.90
2019-06-26T12:05:14.166Z,6.60
2019-06-26T12:10:19.502Z,6.50
2019-06-26T12:15:24.457Z,6.30
2019-06-26T12:20:29.553Z,6.87
2019-06-26T12:25:34.599Z,6.80
2019-06-26T12:30:40.261Z,7.05
2019-06-26T12:35:45.504Z,6.97
2019-06-26T12:40:50.588Z,6.05
2019-06-26T12:45:55.569Z,6.42
2019-06-26T12:51:00.551Z,6.45
2019-06-26T12:56:05.602Z,7.10
2019-06-26T13:01:10.666Z,7.00
2019-06-26T13:06:15.634Z,6.97
2019-06-26T13:11:20.500Z,6.72
2019-06-26T13:16:25.628Z,6.72
2019-06-26T13:21:30.553Z,6.25
2019-06-26T13:26:35.469Z,6.58
2019-06-26T13:31:40.320Z,6.87
2019-06-26T13:36:45.509Z,7.40
2019-06-26T13:41:53.811Z,6.85
2019-06-26T13:46:58.977Z,6.62
2019-06-26T13:52:03.913Z,5.78
2019-06-26T13:57:08.736Z,6.37
2019-06-26T14:02:13.632Z,6.60
2019-06-26T14:07:19.230Z,7.10
2019-06-26T14:12:24.153Z,8.80
2019-06-26T14:17:29.039Z,7.87
2019-06-26T14:22:33.806Z,9.25
2019-06-26T14:27:39.025Z,9.10
2019-06-26T14:32:44.073Z,7.72
2019-06-26T14:37:49.314Z,8.80
2019-06-26T14:42:54.527Z,7.95
2019-06-26T14:47:59.422Z,7.75
2019-06-26T14:53:04.441Z,8.28
2019-06-26T14:58:09.365Z,7.60
2019-06-26T15:03:14.418Z,7.40
2019-06-26T15:08:19.351Z,7.62
2019-06-26T15:13:24.171Z,7.33
2019-06-26T15:18:29.217Z,8.00
2019-06-26T15:23:34.087Z,7.92
2019-06-26T15:28:38.949Z,8.55
2019-06-26T15:33:44.368Z,8.18
2019-06-26T15:38:54.142Z,8.33
2019-06-26T15:43:59.126Z,8.83
2019-06-26T15:49:04.076Z,7.92
2019-06-26T15:54:11.973Z,7.80
2019-06-26T15:59:21.354Z,8.05
2019-06-26T16:04:27.174Z,9.50
2019-06-26T16:09:37.973Z,7.87
2019-06-26T16:14:43.699Z,8.45
2019-06-26T16:19:51.687Z,7.20
2019-06-26T16:25:00.289Z,6.90
2019-06-26T16:30:07.792Z,7.55
2019-06-26T16:35:15.909Z,8.55
2019-06-26T16:40:21.462Z,7.17
2019-06-26T16:45:26.341Z,7.60
2019-06-26T16:50:31.801Z,6.92
2019-06-26T16:55:42.277Z,8.00
2019-06-26T17:00:47.729Z,7.00
2019-06-26T17:05:52.604Z,8.08
2019-06-26T17:10:57.817Z,9.00
2019-06-26T17:16:02.949Z,8.80
2019-06-26T17:21:08.076Z,28.60
2019-06-26T17:26:13.098Z,9.75
2019-06-26T17:31:18.143Z,8.43
2019-06-26T17:36:23.512Z,31.97
2019-06-26T17:41:28.576Z,9.43
2019-06-26T17:46:33.560Z,8.75
2019-06-26T17:51:38.607Z,10.82
2019-06-26T17:56:43.625Z,10.27
2019-06-26T18:01:48.843Z,9.77
2019-06-26T18:06:54.118Z,9.07
2019-06-26T18:11:59.371Z,9.17
2019-06-26T18:17:17.945Z,16.90
2019-06-26T18:22:11.220Z,9.43
2019-06-26T18:27:16.436Z,11.70
2019-06-26T18:32:21.504Z,10.23
2019-06-26T18:37:26.363Z,11.77
2019-06-26T18:42:31.490Z,10.80
2019-06-26T18:47:38.230Z,11.37
2019-06-26T18:52:43.084Z,11.50
2019-06-26T18:57:47.981Z,11.00
2019-06-26T19:02:53.312Z,10.80
2019-06-26T19:07:59.886Z,10.63
2019-06-26T19:13:04.953Z,10.47
2019-06-26T19:18:10.134Z,12.07
2019-06-26T19:23:15.230Z,12.17
2019-06-26T19:28:23.118Z,10.93
2019-06-26T19:33:26.867Z,9.20
2019-06-26T19:38:31.878Z,10.03
2019-06-26T19:43:36.741Z,8.60
2019-06-26T19:48:41.592Z,9.30
2019-06-26T19:53:46.423Z,8.50
2019-06-26T19:58:51.285Z,8.10
2019-06-26T20:03:56.263Z,7.87
2019-06-26T20:09:01.146Z,7.97
2019-06-26T20:14:07.179Z,7.40
2019-06-26T20:19:11.976Z,7.53
2019-06-26T20:24:16.875Z,7.90
2019-06-26T20:29:21.632Z,7.47
2019-06-26T20:34:26.511Z,7.70
2019-06-26T20:39:31.345Z,8.23
2019-06-26T20:44:49.552Z,6.60
2019-06-26T20:50:06.187Z,7.10
2019-06-26T20:55:15.726Z,6.80
2019-06-26T21:00:33.443Z,6.53
2019-06-26T21:05:57.802Z,6.23
2019-06-26T21:11:16.308Z,6.20
2019-06-26T21:16:23.828Z,5.63
2019-06-26T21:21:35.053Z,5.73
2019-06-26T21:26:39.757Z,5.73
2019-06-26T21:31:45.581Z,5.10
2019-06-26T21:36:51.876Z,5.17
2019-06-26T21:41:57.289Z,5.40
2019-06-26T21:47:02.178Z,5.07
2019-06-26T21:52:06.913Z,5.27
2019-06-26T21:57:11.706Z,5.20
2019-06-26T22:02:18.598Z,5.67
2019-06-26T22:07:25.456Z,5.00
2019-06-26T22:12:31.942Z,4.90
2019-06-26T22:17:36.951Z,4.90
2019-06-26T22:22:42.101Z,4.67
2019-06-26T22:27:47.000Z,4.50
2019-06-26T22:32:51.867Z,4.87
2019-06-26T22:37:56.867Z,4.40
2019-06-26T22:43:01.638Z,4.17
2019-06-26T22:48:06.524Z,4.20
2019-06-26T22:53:11.550Z,4.03
2019-06-26T22:58:16.418Z,4.30
2019-06-26T23:03:21.346Z,4.13
2019-06-26T23:08:26.284Z,4.40
2019-06-26T23:13:31.066Z,4.13
2019-06-26T23:18:35.915Z,4.30
2019-06-26T23:23:40.768Z,4.03
2019-06-26T23:28:45.533Z,4.57
2019-06-26T23:33:50.420Z,4.53
2019-06-26T23:38:55.098Z,4.60
2019-06-26T23:43:59.914Z,4.40
2019-06-26T23:49:05.202Z,4.60
2019-06-26T23:54:09.935Z,4.20
2019-06-26T23:59:15.101Z,5.73
